createdAt,value
2019-03-23T00:00:36.099Z,22.30
2019-03-23T00:01:36.092Z,21.70
2019-03-23T00:02:36.072Z,21.20
2019-03-23T00:03:36.058Z,21.60
2019-03-23T00:04:36.038Z,21.00
2019-03-23T00:05:36.025Z,20.50
2019-03-23T00:06:36.004Z,20.10
2019-03-23T00:07:35.990Z,20.80
2019-03-23T00:08:35.975Z,21.20
2019-03-23T00:09:35.956Z,21.20
2019-03-23T00:10:35.944Z,20.70
2019-03-23T00:11:35.933Z,20.30
2019-03-23T00:12:35.908Z,19.80
2019-03-23T00:13:35.892Z,20.50
2019-03-23T00:14:35.886Z,21.00
2019-03-23T00:15:35.865Z,22.10
2019-03-23T00:16:35.844Z,21.00
2019-03-23T00:17:35.834Z,21.70
2019-03-23T00:18:35.817Z,22.10
2019-03-23T00:19:35.794Z,22.50
2019-03-23T00:20:35.780Z,23.20
2019-03-23T00:21:35.765Z,22.90
2019-03-23T00:22:35.746Z,22.70
2019-03-23T00:23:35.730Z,22.90
2019-03-23T00:24:35.724Z,22.90
2019-03-23T00:25:35.705Z,23.20
2019-03-23T00:26:35.683Z,23.70
2019-03-23T00:27:35.662Z,23.50
2019-03-23T00:28:35.650Z,22.10
2019-03-23T00:29:35.630Z,23.10
2019-03-23T00:30:35.616Z,25.20
2019-03-23T00:31:35.614Z,23.60
2019-03-23T00:32:35.592Z,24.50
2019-03-23T00:33:35.568Z,24.40
2019-03-23T00:34:35.550Z,25.30
2019-03-23T00:35:35.532Z,25.40
2019-03-23T00:36:41.257Z,25.50
2019-03-23T00:37:35.503Z,26.30
2019-03-23T00:38:35.489Z,26.50
2019-03-23T00:39:35.475Z,27.80
2019-03-23T00:40:35.454Z,27.90
2019-03-23T00:41:35.445Z,26.70
2019-03-23T00:42:35.423Z,28.80
2019-03-23T00:43:35.412Z,28.80
2019-03-23T00:44:35.389Z,29.60
2019-03-23T00:45:35.375Z,28.70
2019-03-23T00:46:35.358Z,30.60
2019-03-23T00:47:35.343Z,30.30
2019-03-23T00:48:35.328Z,29.90
2019-03-23T00:49:35.307Z,31.10
2019-03-23T00:50:35.303Z,33.00
2019-03-23T00:51:35.277Z,31.90
2019-03-23T00:52:35.257Z,33.90
2019-03-23T00:53:35.241Z,33.70
2019-03-23T00:54:35.224Z,33.10
2019-03-23T00:55:35.212Z,33.80
2019-03-23T00:56:35.192Z,34.70
2019-03-23T00:57:35.179Z,34.80
2019-03-23T00:58:35.166Z,33.00
2019-03-23T00:59:35.172Z,35.10
2019-03-23T01:00:35.130Z,35.30
2019-03-23T01:01:35.109Z,34.90
2019-03-23T01:02:35.099Z,35.10
2019-03-23T01:03:35.078Z,34.50
2019-03-23T01:04:35.061Z,35.80
2019-03-23T01:05:35.047Z,35.80
2019-03-23T01:06:35.026Z,36.10
2019-03-23T01:07:35.010Z,36.70
2019-03-23T01:08:34.994Z,36.60
2019-03-23T01:09:34.979Z,37.80
2019-03-23T01:10:34.960Z,35.30
2019-03-23T01:11:34.944Z,36.10
2019-03-23T01:12:34.935Z,37.20
2019-03-23T01:13:34.912Z,36.70
2019-03-23T01:14:34.896Z,38.10
2019-03-23T01:15:34.883Z,37.40
2019-03-23T01:16:34.863Z,36.90
2019-03-23T01:17:34.848Z,37.20
2019-03-23T01:18:34.825Z,39.50
2019-03-23T01:19:34.810Z,40.10
2019-03-23T01:20:34.801Z,38.30
2019-03-23T01:21:34.784Z,40.00
2019-03-23T01:22:34.760Z,39.30
2019-03-23T01:23:34.745Z,41.40
2019-03-23T01:24:34.727Z,39.20
2019-03-23T01:25:34.710Z,41.10
2019-03-23T01:26:34.697Z,40.50
2019-03-23T01:27:34.677Z,41.30
2019-03-23T01:28:34.665Z,41.80
2019-03-23T01:29:34.644Z,41.60
2019-03-23T01:30:34.631Z,42.10
2019-03-23T01:31:34.609Z,41.60
2019-03-23T01:32:34.591Z,45.40
2019-03-23T01:33:34.575Z,46.30
2019-03-23T01:34:34.568Z,46.30
2019-03-23T01:35:34.540Z,46.60
2019-03-23T01:36:34.520Z,49.60
2019-03-23T01:37:34.505Z,48.80
2019-03-23T01:38:34.495Z,48.10
2019-03-23T01:39:34.478Z,46.80
2019-03-23T01:40:36.326Z,47.40
2019-03-23T01:41:34.438Z,49.30
2019-03-23T01:42:34.423Z,48.70
2019-03-23T01:43:34.407Z,50.60
2019-03-23T01:44:34.393Z,48.80
2019-03-23T01:45:34.369Z,50.60
2019-03-23T01:46:34.356Z,51.30
2019-03-23T01:47:34.336Z,51.30
2019-03-23T01:48:34.316Z,53.70
2019-03-23T01:49:34.301Z,51.60
2019-03-23T01:50:34.281Z,53.10
2019-03-23T01:51:34.271Z,55.80
2019-03-23T01:52:34.249Z,55.00
2019-03-23T01:53:34.234Z,54.20
2019-03-23T01:54:34.210Z,55.90
2019-03-23T01:55:34.197Z,56.60
2019-03-23T01:56:34.184Z,55.40
2019-03-23T01:57:34.156Z,57.00
2019-03-23T01:58:34.142Z,56.80
2019-03-23T01:59:34.124Z,57.40
2019-03-23T02:00:34.106Z,57.00
2019-03-23T02:01:34.088Z,58.10
2019-03-23T02:02:34.066Z,59.50
2019-03-23T02:03:34.051Z,60.00
2019-03-23T02:04:34.033Z,60.70
2019-03-23T02:05:34.021Z,63.00
2019-03-23T02:06:34.005Z,60.10
2019-03-23T02:07:33.990Z,62.70
2019-03-23T02:08:33.970Z,63.90
2019-03-23T02:09:33.943Z,63.50
2019-03-23T02:10:33.929Z,63.90
2019-03-23T02:11:33.921Z,64.20
2019-03-23T02:12:33.892Z,66.00
2019-03-23T02:13:33.880Z,65.30
2019-03-23T02:14:33.856Z,64.90
2019-03-23T02:15:33.835Z,63.60
2019-03-23T02:16:33.821Z,63.40
2019-03-23T02:17:33.804Z,63.30
2019-03-23T02:18:33.787Z,62.30
2019-03-23T02:19:33.767Z,63.10
2019-03-23T02:20:33.748Z,61.90
2019-03-23T02:21:33.724Z,61.30
2019-03-23T02:22:33.706Z,63.70
2019-03-23T02:23:33.690Z,61.20
2019-03-23T02:24:33.669Z,61.30
2019-03-23T02:25:33.653Z,63.40
2019-03-23T02:26:33.634Z,61.80
2019-03-23T02:27:33.634Z,62.80
2019-03-23T02:28:33.605Z,63.00
2019-03-23T02:29:33.578Z,60.40
2019-03-23T02:30:33.563Z,62.70
2019-03-23T02:31:33.549Z,62.20
2019-03-23T02:32:33.527Z,60.70
2019-03-23T02:33:33.505Z,60.80
2019-03-23T02:34:33.490Z,59.10
2019-03-23T02:35:33.470Z,60.40
2019-03-23T02:36:33.492Z,60.70
2019-03-23T02:37:33.452Z,60.00
2019-03-23T02:38:33.444Z,58.80
2019-03-23T02:39:33.406Z,58.80
2019-03-23T02:40:33.379Z,60.90
2019-03-23T02:41:33.376Z,61.30
2019-03-23T02:42:33.340Z,57.70
2019-03-23T02:43:33.334Z,57.90
2019-03-23T02:44:33.306Z,59.20
2019-03-23T02:45:33.290Z,59.30
2019-03-23T02:46:33.265Z,58.40
2019-03-23T02:47:33.249Z,58.80
2019-03-23T02:48:33.229Z,59.10
2019-03-23T02:49:33.213Z,60.00
2019-03-23T02:50:33.192Z,61.60
2019-03-23T02:51:33.178Z,59.60
2019-03-23T02:52:33.157Z,58.70
2019-03-23T02:53:33.139Z,56.90
2019-03-23T02:54:33.118Z,59.60
2019-03-23T02:55:33.105Z,59.30
2019-03-23T02:56:33.086Z,58.50
2019-03-23T02:57:33.062Z,60.30
2019-03-23T02:58:33.043Z,57.20
2019-03-23T02:59:33.026Z,58.10
2019-03-23T03:00:33.009Z,55.20
2019-03-23T03:01:32.990Z,56.70
2019-03-23T03:02:32.972Z,58.10
2019-03-23T03:03:32.960Z,57.10
2019-03-23T03:04:32.957Z,59.70
2019-03-23T03:05:32.915Z,61.60
2019-03-23T03:06:32.899Z,57.40
2019-03-23T03:07:41.817Z,58.60
2019-03-23T03:08:32.881Z,61.40
2019-03-23T03:09:32.841Z,59.90
2019-03-23T03:10:32.822Z,60.90
2019-03-23T03:11:32.805Z,62.10
2019-03-23T03:12:32.795Z,61.90
2019-03-23T03:13:32.768Z,60.90
2019-03-23T03:14:32.755Z,63.30
2019-03-23T03:15:32.736Z,62.20
2019-03-23T03:16:32.713Z,60.00
2019-03-23T03:17:32.690Z,63.80
2019-03-23T03:18:32.685Z,61.20
2019-03-23T03:19:32.657Z,62.40
2019-03-23T03:20:32.638Z,62.30
2019-03-23T03:21:32.615Z,62.60
2019-03-23T03:22:32.605Z,63.10
2019-03-23T03:23:32.583Z,60.10
2019-03-23T03:24:32.561Z,60.50
2019-03-23T03:25:32.543Z,61.20
2019-03-23T03:26:32.525Z,59.30
2019-03-23T03:27:32.504Z,60.40
2019-03-23T03:28:32.485Z,60.90
2019-03-23T03:29:32.470Z,60.60
2019-03-23T03:30:32.454Z,61.00
2019-03-23T03:31:32.436Z,61.20
2019-03-23T03:32:32.472Z,61.40
2019-03-23T03:33:32.390Z,59.90
2019-03-23T03:34:32.372Z,60.50
2019-03-23T03:35:32.351Z,61.60
2019-03-23T03:36:32.335Z,60.80
2019-03-23T03:37:32.320Z,62.40
2019-03-23T03:38:32.296Z,63.40
2019-03-23T03:39:32.283Z,60.80
2019-03-23T03:40:32.268Z,60.60
2019-03-23T03:41:32.242Z,63.30
2019-03-23T03:42:32.221Z,61.80
2019-03-23T03:43:32.206Z,61.40
2019-03-23T03:44:32.201Z,61.50
2019-03-23T03:45:32.173Z,61.70
2019-03-23T03:46:32.149Z,61.50
2019-03-23T03:47:32.128Z,61.10
2019-03-23T03:48:32.111Z,61.30
2019-03-23T03:49:32.094Z,61.30
2019-03-23T03:50:32.074Z,61.30
2019-03-23T03:51:32.053Z,60.40
2019-03-23T03:52:32.037Z,60.30
2019-03-23T03:53:32.044Z,61.00
2019-03-23T03:54:32.001Z,62.70
2019-03-23T03:55:31.978Z,61.10
2019-03-23T03:56:31.960Z,62.20
2019-03-23T03:57:31.947Z,61.60
2019-03-23T03:58:31.921Z,61.50
2019-03-23T03:59:31.905Z,61.60
2019-03-23T04:00:31.890Z,61.50
2019-03-23T04:01:31.874Z,61.40
2019-03-23T04:02:31.851Z,63.70
2019-03-23T04:03:31.833Z,62.40
2019-03-23T04:04:31.811Z,63.00
2019-03-23T04:05:31.791Z,65.50
2019-03-23T04:06:31.778Z,64.30
2019-03-23T04:07:31.756Z,64.40
2019-03-23T04:08:31.745Z,62.10
2019-03-23T04:09:31.722Z,61.80
2019-03-23T04:10:31.701Z,62.30
2019-03-23T04:11:31.684Z,65.50
2019-03-23T04:12:31.664Z,62.70
2019-03-23T04:13:31.646Z,62.90
2019-03-23T04:14:31.621Z,65.30
2019-03-23T04:15:31.606Z,65.00
2019-03-23T04:16:31.590Z,64.90
2019-03-23T04:17:31.576Z,65.20
2019-03-23T04:18:31.550Z,67.70
2019-03-23T04:19:31.530Z,65.90
2019-03-23T04:20:31.519Z,68.00
2019-03-23T04:21:31.494Z,68.40
2019-03-23T04:22:31.501Z,65.60
2019-03-23T04:23:31.464Z,67.30
2019-03-23T04:24:31.447Z,70.20
2019-03-23T04:25:31.415Z,67.00
2019-03-23T04:26:31.445Z,65.60
2019-03-23T04:27:31.379Z,65.80
2019-03-23T04:28:31.401Z,65.00
2019-03-23T04:29:31.359Z,66.30
2019-03-23T04:30:31.317Z,64.20
2019-03-23T04:31:31.302Z,66.30
2019-03-23T04:32:31.285Z,67.10
2019-03-23T04:33:31.260Z,68.70
2019-03-23T04:34:31.241Z,67.90
2019-03-23T04:35:31.224Z,69.50
2019-03-23T04:36:31.210Z,68.90
2019-03-23T04:37:31.207Z,67.60
2019-03-23T04:38:31.169Z,69.80
2019-03-23T04:39:31.150Z,66.40
2019-03-23T04:40:31.146Z,69.90
2019-03-23T04:41:31.111Z,68.90
2019-03-23T04:42:31.093Z,68.70
2019-03-23T04:43:31.074Z,67.20
2019-03-23T04:44:31.054Z,67.20
2019-03-23T04:45:31.035Z,64.00
2019-03-23T04:46:31.016Z,66.10
2019-03-23T04:47:31.004Z,64.90
2019-03-23T04:48:30.985Z,64.20
2019-03-23T04:49:30.958Z,64.50
2019-03-23T04:50:30.943Z,63.80
2019-03-23T04:51:30.923Z,63.40
2019-03-23T04:52:30.906Z,66.30
2019-03-23T04:53:30.881Z,65.80
2019-03-23T04:54:30.863Z,63.40
2019-03-23T04:55:30.850Z,64.80
2019-03-23T04:56:30.827Z,63.90
2019-03-23T04:57:30.806Z,62.10
2019-03-23T04:58:30.787Z,62.00
2019-03-23T04:59:30.769Z,61.10
2019-03-23T05:00:30.763Z,61.80
2019-03-23T05:01:30.730Z,64.30
2019-03-23T05:02:30.711Z,64.80
2019-03-23T05:03:30.697Z,61.60
2019-03-23T05:04:30.676Z,65.10
2019-03-23T05:05:30.655Z,63.60
2019-03-23T05:06:30.637Z,62.60
2019-03-23T05:07:30.618Z,65.30
2019-03-23T05:08:33.512Z,65.00
2019-03-23T05:09:30.582Z,65.00
2019-03-23T05:10:30.565Z,64.30
2019-03-23T05:11:30.541Z,66.40
2019-03-23T05:12:30.525Z,65.10
2019-03-23T05:13:30.505Z,64.10
2019-03-23T05:14:30.493Z,61.10
2019-03-23T05:15:30.474Z,61.40
2019-03-23T05:16:30.454Z,59.80
2019-03-23T05:17:30.428Z,61.40
2019-03-23T05:18:30.413Z,60.30
2019-03-23T05:19:30.391Z,60.90
2019-03-23T05:20:30.373Z,59.90
2019-03-23T05:21:30.351Z,59.60
2019-03-23T05:22:30.334Z,59.80
2019-03-23T05:23:30.327Z,60.40
2019-03-23T05:24:30.297Z,60.50
2019-03-23T05:25:30.277Z,61.80
2019-03-23T05:26:30.260Z,60.20
2019-03-23T05:27:30.244Z,60.50
2019-03-23T05:28:30.224Z,57.80
2019-03-23T05:29:30.202Z,59.40
2019-03-23T05:30:30.184Z,59.50
2019-03-23T05:31:30.167Z,61.50
2019-03-23T05:32:30.144Z,61.00
2019-03-23T05:33:30.128Z,60.00
2019-03-23T05:34:30.105Z,61.40
2019-03-23T05:35:30.090Z,59.50
2019-03-23T05:36:30.075Z,60.60
2019-03-23T05:37:30.051Z,56.30
2019-03-23T05:38:30.042Z,58.40
2019-03-23T05:39:30.013Z,58.30
2019-03-23T05:40:30.001Z,58.70
2019-03-23T05:41:30.928Z,57.40
2019-03-23T05:42:29.954Z,56.60
2019-03-23T05:43:29.935Z,59.30
2019-03-23T05:44:29.916Z,57.50
2019-03-23T05:45:29.897Z,57.90
2019-03-23T05:46:29.878Z,59.30
2019-03-23T05:47:29.868Z,58.80
2019-03-23T05:48:29.843Z,58.10
2019-03-23T05:49:29.820Z,59.10
2019-03-23T05:50:29.804Z,58.70
2019-03-23T05:51:29.787Z,58.20
2019-03-23T05:52:29.770Z,59.90
2019-03-23T05:53:29.744Z,58.30
2019-03-23T05:54:29.725Z,59.10
2019-03-23T05:55:29.718Z,59.40
2019-03-23T05:56:29.698Z,58.10
2019-03-23T05:57:29.669Z,60.40
2019-03-23T05:58:29.655Z,58.30
2019-03-23T05:59:29.634Z,57.30
2019-03-23T06:00:29.613Z,60.00
2019-03-23T06:01:29.598Z,58.20
2019-03-23T06:02:29.577Z,59.00
2019-03-23T06:03:29.561Z,59.40
2019-03-23T06:04:29.545Z,59.60
2019-03-23T06:05:29.517Z,59.30
2019-03-23T06:06:29.504Z,60.20
2019-03-23T06:07:29.488Z,57.80
2019-03-23T06:08:29.465Z,60.90
2019-03-23T06:09:29.446Z,58.60
2019-03-23T06:10:29.422Z,59.50
2019-03-23T06:11:29.406Z,60.10
2019-03-23T06:12:29.389Z,58.60
2019-03-23T06:13:29.370Z,58.40
2019-03-23T06:14:29.347Z,59.90
2019-03-23T06:15:29.332Z,60.30
2019-03-23T06:16:29.310Z,60.50
2019-03-23T06:17:29.296Z,60.60
2019-03-23T06:18:29.272Z,60.50
2019-03-23T06:19:29.256Z,59.20
2019-03-23T06:20:29.236Z,60.50
2019-03-23T06:21:29.217Z,59.10
2019-03-23T06:22:29.201Z,59.50
2019-03-23T06:23:29.180Z,59.60
2019-03-23T06:24:29.158Z,60.70
2019-03-23T06:25:29.152Z,58.80
2019-03-23T06:26:29.121Z,61.30
2019-03-23T06:27:29.106Z,60.80
2019-03-23T06:28:29.086Z,62.00
2019-03-23T06:29:29.065Z,62.00
2019-03-23T06:30:29.048Z,61.60
2019-03-23T06:31:29.027Z,62.60
2019-03-23T06:32:29.010Z,62.80
2019-03-23T06:33:28.987Z,63.00
2019-03-23T06:34:28.967Z,63.90
2019-03-23T06:35:28.982Z,64.20
2019-03-23T06:36:28.930Z,63.30
2019-03-23T06:37:28.921Z,63.20
2019-03-23T06:38:28.894Z,65.80
2019-03-23T06:39:28.882Z,63.10
2019-03-23T06:40:28.864Z,63.50
2019-03-23T06:41:28.844Z,63.90
2019-03-23T06:42:28.821Z,63.90
2019-03-23T06:43:28.802Z,65.60
2019-03-23T06:44:28.783Z,66.60
2019-03-23T06:45:28.766Z,66.00
2019-03-23T06:46:28.742Z,67.60
2019-03-23T06:47:28.729Z,64.00
2019-03-23T06:48:28.706Z,65.80
2019-03-23T06:49:28.689Z,65.10
2019-03-23T06:50:28.670Z,64.90
2019-03-23T06:51:28.654Z,66.70
2019-03-23T06:52:28.631Z,64.00
2019-03-23T06:53:28.615Z,67.10
2019-03-23T06:54:28.595Z,67.00
2019-03-23T06:55:28.579Z,65.00
2019-03-23T06:56:28.554Z,68.70
2019-03-23T06:57:28.540Z,70.90
2019-03-23T06:58:28.520Z,67.40
2019-03-23T06:59:28.500Z,81.90
2019-03-23T07:00:28.482Z,67.30
2019-03-23T07:01:28.467Z,65.30
2019-03-23T07:02:28.442Z,66.60
2019-03-23T07:03:28.425Z,69.90
2019-03-23T07:04:28.443Z,65.60
2019-03-23T07:05:28.388Z,61.60
2019-03-23T07:06:28.369Z,65.70
2019-03-23T07:07:28.351Z,66.50
2019-03-23T07:08:32.196Z,65.40
2019-03-23T07:09:28.310Z,62.30
2019-03-23T07:10:28.298Z,65.00
2019-03-23T07:11:28.275Z,66.30
2019-03-23T07:12:28.255Z,66.70
2019-03-23T07:13:28.235Z,67.20
2019-03-23T07:14:28.221Z,63.80
2019-03-23T07:15:28.203Z,66.20
2019-03-23T07:16:28.185Z,65.10
2019-03-23T07:17:28.162Z,63.70
2019-03-23T07:18:28.145Z,62.60
2019-03-23T07:19:28.128Z,62.00
2019-03-23T07:20:28.108Z,63.90
2019-03-23T07:21:28.090Z,63.00
2019-03-23T07:22:28.067Z,60.40
2019-03-23T07:23:28.054Z,59.50
2019-03-23T07:24:28.029Z,62.90
2019-03-23T07:25:28.017Z,67.40
2019-03-23T07:26:27.993Z,62.30
2019-03-23T07:27:27.972Z,64.80
2019-03-23T07:28:27.953Z,62.20
2019-03-23T07:29:27.932Z,63.90
2019-03-23T07:30:27.917Z,61.80
2019-03-23T07:31:27.896Z,62.40
2019-03-23T07:32:27.883Z,62.80
2019-03-23T07:33:27.875Z,63.10
2019-03-23T07:34:27.840Z,59.10
2019-03-23T07:35:27.824Z,62.10
2019-03-23T07:36:27.807Z,61.80
2019-03-23T07:37:27.786Z,62.20
2019-03-23T07:38:27.767Z,62.90
2019-03-23T07:39:30.355Z,57.90
2019-03-23T07:40:27.738Z,60.80
2019-03-23T07:41:27.711Z,60.10
2019-03-23T07:42:27.698Z,57.70
2019-03-23T07:43:27.681Z,61.10
2019-03-23T07:44:27.655Z,59.10
2019-03-23T07:45:27.638Z,59.40
2019-03-23T07:46:27.622Z,59.90
2019-03-23T07:47:27.601Z,60.80
2019-03-23T07:48:28.566Z,61.70
2019-03-23T07:49:27.565Z,57.60
2019-03-23T07:50:27.543Z,58.30
2019-03-23T07:51:27.532Z,60.30
2019-03-23T07:52:27.509Z,58.80
2019-03-23T07:53:27.489Z,58.80
2019-03-23T07:54:27.474Z,58.60
2019-03-23T07:55:27.454Z,58.70
2019-03-23T07:56:27.434Z,60.30
2019-03-23T07:57:27.415Z,59.70
2019-03-23T07:58:27.399Z,60.10
2019-03-23T07:59:27.379Z,57.00
2019-03-23T08:00:27.363Z,57.00
2019-03-23T08:01:27.349Z,56.70
2019-03-23T08:02:27.353Z,58.70
2019-03-23T08:03:27.309Z,57.50
2019-03-23T08:04:27.298Z,55.90
2019-03-23T08:05:27.281Z,54.80
2019-03-23T08:06:27.259Z,56.60
2019-03-23T08:07:27.253Z,56.30
2019-03-23T08:08:27.217Z,55.90
2019-03-23T08:09:37.109Z,56.90
2019-03-23T08:10:27.183Z,55.80
2019-03-23T08:11:27.183Z,53.60
2019-03-23T08:12:27.142Z,53.80
2019-03-23T08:13:27.265Z,55.20
2019-03-23T08:14:27.105Z,53.70
2019-03-23T08:15:27.095Z,54.00
2019-03-23T08:16:27.067Z,55.40
2019-03-23T08:17:27.065Z,54.90
2019-03-23T08:18:27.030Z,52.00
2019-03-23T08:19:27.019Z,54.30
2019-03-23T08:20:26.999Z,54.50
2019-03-23T08:21:26.979Z,54.40
2019-03-23T08:22:26.965Z,54.30
2019-03-23T08:23:26.947Z,54.00
2019-03-23T08:24:26.932Z,55.60
2019-03-23T08:25:26.906Z,56.30
2019-03-23T08:26:26.889Z,55.60
2019-03-23T08:27:26.883Z,55.80
2019-03-23T08:28:26.850Z,54.10
2019-03-23T08:29:26.845Z,55.30
2019-03-23T08:30:26.813Z,53.50
2019-03-23T08:31:26.799Z,55.40
2019-03-23T08:32:26.783Z,57.20
2019-03-23T08:33:26.764Z,55.40
2019-03-23T08:34:26.742Z,55.90
2019-03-23T08:35:26.725Z,55.40
2019-03-23T08:36:26.715Z,52.40
2019-03-23T08:37:26.704Z,54.50
2019-03-23T08:38:26.672Z,56.00
2019-03-23T08:39:26.660Z,58.10
2019-03-23T08:40:26.636Z,56.50
2019-03-23T08:41:26.617Z,55.30
2019-03-23T08:42:26.599Z,53.80
2019-03-23T08:43:26.580Z,53.10
2019-03-23T08:44:26.572Z,53.80
2019-03-23T08:45:26.548Z,56.00
2019-03-23T08:46:26.521Z,57.10
2019-03-23T08:47:26.515Z,57.50
2019-03-23T08:48:26.487Z,56.00
2019-03-23T08:49:28.617Z,55.70
2019-03-23T08:50:26.450Z,57.30
2019-03-23T08:51:26.442Z,58.00
2019-03-23T08:52:28.819Z,59.40
2019-03-23T08:53:26.397Z,56.30
2019-03-23T08:54:26.381Z,55.70
2019-03-23T08:55:26.363Z,54.20
2019-03-23T08:56:26.355Z,54.50
2019-03-23T08:57:26.334Z,53.30
2019-03-23T08:58:26.311Z,58.30
2019-03-23T08:59:26.302Z,54.40
2019-03-23T09:00:26.305Z,54.80
2019-03-23T09:01:26.254Z,57.40
2019-03-23T09:02:26.241Z,53.30
2019-03-23T09:03:26.217Z,54.70
2019-03-23T09:04:26.203Z,55.30
2019-03-23T09:05:26.182Z,54.90
2019-03-23T09:06:26.172Z,53.80
2019-03-23T09:07:26.146Z,56.10
2019-03-23T09:08:26.139Z,55.10
2019-03-23T09:09:26.108Z,53.10
2019-03-23T09:10:26.092Z,55.60
2019-03-23T09:11:26.076Z,51.50
2019-03-23T09:12:26.061Z,54.20
2019-03-23T09:13:26.046Z,53.50
2019-03-23T09:14:26.035Z,52.40
2019-03-23T09:15:26.006Z,54.70
2019-03-23T09:16:25.984Z,55.60
2019-03-23T09:17:25.966Z,55.00
2019-03-23T09:18:25.963Z,57.10
2019-03-23T09:19:25.932Z,56.10
2019-03-23T09:20:25.919Z,53.90
2019-03-23T09:21:25.900Z,55.30
2019-03-23T09:22:25.878Z,55.50
2019-03-23T09:23:25.873Z,55.40
2019-03-23T09:24:25.847Z,53.40
2019-03-23T09:25:25.824Z,54.90
2019-03-23T09:26:25.808Z,53.90
2019-03-23T09:27:25.791Z,54.60
2019-03-23T09:28:25.773Z,51.80
2019-03-23T09:29:25.755Z,52.60
2019-03-23T09:30:25.745Z,51.70
2019-03-23T09:31:25.719Z,54.00
2019-03-23T09:32:25.705Z,52.70
2019-03-23T09:33:25.686Z,51.30
2019-03-23T09:34:25.668Z,51.40
2019-03-23T09:35:25.650Z,52.10
2019-03-23T09:36:25.636Z,51.50
2019-03-23T09:37:25.620Z,51.40
2019-03-23T09:38:25.599Z,50.30
2019-03-23T09:39:25.581Z,51.50
2019-03-23T09:40:25.566Z,52.50
2019-03-23T09:41:25.543Z,51.90
2019-03-23T09:42:25.527Z,51.70
2019-03-23T09:43:25.514Z,50.30
2019-03-23T09:44:25.500Z,47.40
2019-03-23T09:45:25.479Z,46.30
2019-03-23T09:46:25.460Z,46.70
2019-03-23T09:47:25.456Z,48.60
2019-03-23T09:48:25.425Z,48.60
2019-03-23T09:49:25.417Z,47.40
2019-03-23T09:50:25.390Z,45.20
2019-03-23T09:51:25.371Z,48.10
2019-03-23T09:52:25.372Z,46.30
2019-03-23T09:53:25.346Z,48.00
2019-03-23T09:54:25.346Z,46.50
2019-03-23T09:55:25.313Z,47.80
2019-03-23T09:56:25.288Z,46.70
2019-03-23T09:57:25.272Z,47.00
2019-03-23T09:58:25.254Z,45.90
2019-03-23T09:59:25.237Z,46.20
2019-03-23T10:00:25.229Z,45.90
2019-03-23T10:01:25.201Z,48.10
2019-03-23T10:02:25.193Z,47.10
2019-03-23T10:03:25.168Z,45.70
2019-03-23T10:04:25.156Z,44.00
2019-03-23T10:05:25.139Z,46.60
2019-03-23T10:06:25.119Z,47.40
2019-03-23T10:07:25.111Z,46.10
2019-03-23T10:08:25.086Z,46.70
2019-03-23T10:09:25.071Z,43.90
2019-03-23T10:10:25.060Z,46.80
2019-03-23T10:11:25.041Z,46.20
2019-03-23T10:12:25.019Z,46.00
2019-03-23T10:13:25.006Z,46.20
2019-03-23T10:14:24.990Z,45.80
2019-03-23T10:15:24.978Z,46.00
2019-03-23T10:16:24.955Z,45.50
2019-03-23T10:17:24.955Z,46.30
2019-03-23T10:18:24.921Z,50.90
2019-03-23T10:19:24.904Z,46.60
2019-03-23T10:20:24.887Z,47.40
2019-03-23T10:21:24.872Z,48.30
2019-03-23T10:22:24.854Z,47.40
2019-03-23T10:23:24.846Z,47.70
2019-03-23T10:24:24.822Z,47.50
2019-03-23T10:25:24.810Z,48.00
2019-03-23T10:26:24.789Z,48.10
2019-03-23T10:27:24.777Z,48.10
2019-03-23T10:28:24.762Z,49.10
2019-03-23T10:29:24.745Z,47.80
2019-03-23T10:30:24.730Z,47.40
2019-03-23T10:31:24.707Z,48.50
2019-03-23T10:32:24.696Z,46.70
2019-03-23T10:33:24.683Z,46.80
2019-03-23T10:34:24.660Z,47.20
2019-03-23T10:35:24.645Z,48.70
2019-03-23T10:36:24.627Z,48.90
2019-03-23T10:37:26.109Z,48.10
2019-03-23T10:38:24.597Z,49.00
2019-03-23T10:39:24.581Z,47.80
2019-03-23T10:40:32.513Z,47.80
2019-03-23T10:41:24.549Z,47.20
2019-03-23T10:42:24.534Z,47.80
2019-03-23T10:43:24.516Z,47.40
2019-03-23T10:44:24.501Z,48.10
2019-03-23T10:45:24.484Z,47.70
2019-03-23T10:46:25.153Z,48.20
2019-03-23T10:47:24.459Z,46.80
2019-03-23T10:48:24.443Z,47.90
2019-03-23T10:49:24.421Z,46.50
2019-03-23T10:50:24.405Z,46.30
2019-03-23T10:51:24.398Z,48.20
2019-03-23T10:52:24.379Z,48.80
2019-03-23T10:53:24.357Z,47.00
2019-03-23T10:54:24.347Z,49.30
2019-03-23T10:55:24.330Z,47.60
2019-03-23T10:56:24.315Z,48.00
2019-03-23T10:57:24.297Z,45.20
2019-03-23T10:58:24.283Z,48.10
2019-03-23T10:59:24.273Z,46.90
2019-03-23T11:00:24.259Z,45.30
2019-03-23T11:01:24.294Z,46.20
2019-03-23T11:02:24.231Z,44.70
2019-03-23T11:03:24.211Z,44.60
2019-03-23T11:04:24.220Z,44.30
2019-03-23T11:05:24.186Z,45.20
2019-03-23T11:06:24.170Z,44.30
2019-03-23T11:07:24.175Z,45.10
2019-03-23T11:08:24.143Z,44.50
2019-03-23T11:09:24.129Z,45.50
2019-03-23T11:10:24.115Z,45.10
2019-03-23T11:11:24.104Z,46.90
2019-03-23T11:12:24.101Z,45.70
2019-03-23T11:13:24.074Z,44.80
2019-03-23T11:14:24.067Z,46.50
2019-03-23T11:15:24.049Z,47.60
2019-03-23T11:16:24.033Z,45.60
2019-03-23T11:17:24.235Z,45.30
2019-03-23T11:18:24.004Z,45.30
2019-03-23T11:19:24.010Z,45.50
2019-03-23T11:20:23.997Z,48.00
2019-03-23T11:21:23.968Z,48.70
2019-03-23T11:22:23.952Z,45.80
2019-03-23T11:23:23.940Z,46.80
2019-03-23T11:24:23.923Z,46.40
2019-03-23T11:25:23.908Z,43.70
2019-03-23T11:26:23.898Z,44.30
2019-03-23T11:27:23.881Z,45.80
2019-03-23T11:28:23.865Z,44.80
2019-03-23T11:29:23.867Z,45.60
2019-03-23T11:30:23.839Z,45.20
2019-03-23T11:31:23.826Z,44.80
2019-03-23T11:32:23.817Z,46.00
2019-03-23T11:33:23.803Z,45.80
2019-03-23T11:34:23.790Z,44.50
2019-03-23T11:35:23.868Z,45.60
2019-03-23T11:36:23.754Z,44.20
2019-03-23T11:37:23.904Z,43.80
2019-03-23T11:38:23.737Z,43.40
2019-03-23T11:39:23.707Z,44.10
2019-03-23T11:40:23.747Z,44.60
2019-03-23T11:41:23.686Z,44.00
2019-03-23T11:42:23.704Z,45.40
2019-03-23T11:43:23.651Z,45.30
2019-03-23T11:44:23.644Z,43.70
2019-03-23T11:45:23.625Z,43.10
2019-03-23T11:46:23.615Z,45.90
2019-03-23T11:47:23.595Z,45.00
2019-03-23T11:48:23.579Z,45.50
2019-03-23T11:49:23.579Z,46.00
2019-03-23T11:50:23.551Z,45.30
2019-03-23T11:51:23.538Z,46.10
2019-03-23T11:52:23.520Z,43.30
2019-03-23T11:53:23.517Z,42.30
2019-03-23T11:54:23.487Z,43.20
2019-03-23T11:55:23.472Z,44.00
2019-03-23T11:56:23.465Z,44.80
2019-03-23T11:57:23.447Z,46.00
2019-03-23T11:58:23.433Z,45.40
2019-03-23T11:59:23.420Z,48.40
2019-03-23T12:00:23.400Z,49.70
2019-03-23T12:01:23.390Z,45.70
2019-03-23T12:02:23.382Z,44.70
2019-03-23T12:03:23.369Z,93.00
2019-03-23T12:04:25.042Z,62.00
2019-03-23T12:05:23.331Z,47.30
2019-03-23T12:06:23.320Z,46.40
2019-03-23T12:07:23.307Z,48.50
2019-03-23T12:08:23.282Z,51.90
2019-03-23T12:09:23.268Z,48.10
2019-03-23T12:10:23.252Z,45.60
2019-03-23T12:11:23.248Z,46.00
2019-03-23T12:12:23.247Z,45.10
2019-03-23T12:13:23.219Z,43.40
2019-03-23T12:14:23.199Z,43.30
2019-03-23T12:15:23.187Z,42.50
2019-03-23T12:16:23.174Z,42.40
2019-03-23T12:17:23.154Z,45.70
2019-03-23T12:18:23.139Z,43.00
2019-03-23T12:19:23.122Z,44.80
2019-03-23T12:20:23.120Z,42.30
2019-03-23T12:21:23.094Z,42.70
2019-03-23T12:22:23.088Z,42.30
2019-03-23T12:23:23.067Z,41.40
2019-03-23T12:24:23.068Z,42.60
2019-03-23T12:25:23.038Z,43.00
2019-03-23T12:26:23.030Z,43.10
2019-03-23T12:27:24.726Z,43.60
2019-03-23T12:28:22.998Z,45.00
2019-03-23T12:29:22.978Z,44.10
2019-03-23T12:30:22.968Z,44.60
2019-03-23T12:31:22.963Z,44.50
2019-03-23T12:32:22.934Z,45.10
2019-03-23T12:33:22.922Z,44.10
2019-03-23T12:34:22.904Z,47.50
2019-03-23T12:35:22.891Z,45.50
2019-03-23T12:36:22.884Z,46.10
2019-03-23T12:37:22.863Z,46.80
2019-03-23T12:38:22.849Z,44.40
2019-03-23T12:39:22.834Z,45.40
2019-03-23T12:40:22.825Z,45.20
2019-03-23T12:41:23.483Z,45.30
2019-03-23T12:42:22.790Z,47.40
2019-03-23T12:43:22.775Z,45.10
2019-03-23T12:44:22.760Z,45.70
2019-03-23T12:45:22.756Z,44.20
2019-03-23T12:46:22.733Z,46.70
2019-03-23T12:47:22.720Z,45.50
2019-03-23T12:48:22.712Z,45.00
2019-03-23T12:49:22.688Z,46.00
2019-03-23T12:50:22.672Z,45.50
2019-03-23T12:51:22.659Z,43.80
2019-03-23T12:52:22.647Z,44.40